createdAt,value
2023-02-09T00:01:30.278Z,-6.00
2023-02-09T00:03:58.409Z,-5.90
2023-02-09T00:06:26.559Z,-5.90
2023-02-09T00:08:54.421Z,-6.00
2023-02-09T00:11:48.415Z,-6.00
2023-02-09T00:14:21.584Z,-6.10
2023-02-09T00:16:50.711Z,-6.20
2023-02-09T00:19:20.421Z,-6.50
2023-02-09T00:21:48.748Z,-6.60
2023-02-09T00:24:16.683Z,-6.70
2023-02-09T00:26:44.535Z,-6.80
2023-02-09T00:29:12.837Z,-6.70
2023-02-09T00:31:40.546Z,-6.70
2023-02-09T00:34:08.166Z,-6.60
2023-02-09T00:36:35.383Z,-6.60
2023-02-09T00:39:03.071Z,-6.70
2023-02-09T00:41:48.727Z,-6.70
2023-02-09T00:44:16.118Z,-6.70
2023-02-09T00:46:44.016Z,-6.80
2023-02-09T00:49:11.268Z,-6.80
2023-02-09T00:51:39.707Z,-6.80
2023-02-09T00:54:07.186Z,-6.70
2023-02-09T00:56:34.395Z,-6.60
2023-02-09T00:59:01.803Z,-6.70
2023-02-09T01:01:29.226Z,-6.70
2023-02-09T01:03:57.198Z,-6.80
2023-02-09T01:06:24.460Z,-6.80
2023-02-09T01:08:51.653Z,-6.80
2023-02-09T01:11:19.386Z,-6.70
2023-02-09T01:13:47.411Z,-6.70
2023-02-09T01:16:17.170Z,-6.70
2023-02-09T01:18:45.449Z,-6.70
2023-02-09T01:21:15.452Z,-6.60
2023-02-09T01:23:43.635Z,-6.70
2023-02-09T01:26:12.335Z,-6.70
2023-02-09T01:28:39.632Z,-6.70
2023-02-09T01:31:18.114Z,-6.70
2023-02-09T01:33:45.721Z,-6.80
2023-02-09T01:36:12.991Z,-6.80
2023-02-09T01:38:40.670Z,-6.80
2023-02-09T01:41:09.280Z,-6.80
2023-02-09T01:44:05.160Z,-6.80
2023-02-09T01:46:35.178Z,-6.80
2023-02-09T01:49:11.720Z,-6.70
2023-02-09T01:51:43.340Z,-6.70
2023-02-09T01:54:16.941Z,-6.70
2023-02-09T01:56:50.126Z,-6.70
2023-02-09T01:59:18.315Z,-6.70
2023-02-09T02:01:45.870Z,-6.80
2023-02-09T02:04:14.597Z,-6.80
2023-02-09T02:06:42.131Z,-6.80
2023-02-09T02:09:13.832Z,-6.80
2023-02-09T02:11:47.431Z,-6.80
2023-02-09T02:14:27.862Z,-6.90
2023-02-09T02:17:20.801Z,-6.90
2023-02-09T02:20:24.207Z,-6.90
2023-02-09T02:23:10.658Z,-6.90
2023-02-09T02:26:26.620Z,-6.90
2023-02-09T02:29:39.287Z,-6.80
2023-02-09T02:32:23.399Z,-6.80
2023-02-09T02:35:11.098Z,-6.80
2023-02-09T02:37:48.723Z,-6.80
2023-02-09T02:40:26.358Z,-6.80
2023-02-09T02:43:15.286Z,-6.80
2023-02-09T02:46:13.059Z,-6.80
2023-02-09T02:48:52.132Z,-6.90
2023-02-09T02:51:43.232Z,-6.90
2023-02-09T02:54:16.680Z,-6.90
2023-02-09T02:56:50.127Z,-6.80
2023-02-09T02:59:23.365Z,-6.80
2023-02-09T03:02:04.874Z,-6.70
2023-02-09T03:04:34.552Z,-6.50
2023-02-09T03:07:05.766Z,-6.30
2023-02-09T03:09:33.057Z,-6.20
2023-02-09T03:12:23.163Z,-6.40
2023-02-09T03:15:15.937Z,-6.40
2023-02-09T03:17:49.193Z,-6.30
2023-02-09T03:20:44.051Z,-6.30
2023-02-09T03:23:22.453Z,-6.30
2023-02-09T03:25:53.472Z,-5.90
2023-02-09T03:28:27.424Z,-6.10
2023-02-09T03:30:56.694Z,-6.10
2023-02-09T03:33:27.573Z,-6.00
2023-02-09T03:35:57.535Z,-6.00
2023-02-09T03:38:24.832Z,-6.00
2023-02-09T03:40:52.202Z,-6.00
2023-02-09T03:43:19.672Z,-5.70
2023-02-09T03:45:46.915Z,-5.70
2023-02-09T03:48:14.174Z,-5.70
2023-02-09T03:50:41.367Z,-5.40
2023-02-09T03:53:08.691Z,-5.40
2023-02-09T03:55:37.354Z,-5.30
2023-02-09T03:58:04.701Z,-5.40
2023-02-09T04:00:31.900Z,-5.40
2023-02-09T04:02:59.573Z,-5.20
2023-02-09T04:05:26.732Z,-5.20
2023-02-09T04:07:53.951Z,-5.10
2023-02-09T04:10:21.267Z,-5.00
2023-02-09T04:12:48.611Z,-5.00
2023-02-09T04:15:15.938Z,-4.90
2023-02-09T04:17:43.091Z,-4.90
2023-02-09T04:20:10.831Z,-4.90
2023-02-09T04:22:38.071Z,-5.00
2023-02-09T04:25:05.565Z,-4.90
2023-02-09T04:27:32.814Z,-4.90
2023-02-09T04:30:00.108Z,-4.90
2023-02-09T04:32:27.193Z,-4.90
2023-02-09T04:34:54.414Z,-4.90
2023-02-09T04:37:21.602Z,-4.90
2023-02-09T04:39:48.804Z,-4.80
2023-02-09T04:42:15.957Z,-4.90
2023-02-09T04:44:43.401Z,-4.90
2023-02-09T04:47:10.527Z,-5.00
2023-02-09T04:49:37.785Z,-5.00
2023-02-09T04:52:05.152Z,-5.10
2023-02-09T04:54:32.309Z,-5.00
2023-02-09T04:57:22.954Z,-5.00
2023-02-09T04:59:50.233Z,-5.10
2023-02-09T05:02:18.024Z,-5.10
2023-02-09T05:04:45.500Z,-5.10
2023-02-09T05:07:12.616Z,-5.10
2023-02-09T05:09:39.855Z,-5.10
2023-02-09T05:12:10.351Z,-5.10
2023-02-09T05:14:38.731Z,-5.00
2023-02-09T05:17:05.951Z,-5.10
2023-02-09T05:19:33.297Z,-5.10
2023-02-09T05:22:00.472Z,-5.10
2023-02-09T05:24:27.697Z,-5.10
2023-02-09T05:26:54.890Z,-5.10
2023-02-09T05:29:22.327Z,-5.30
2023-02-09T05:31:49.762Z,-5.20
2023-02-09T05:34:17.057Z,-5.30
2023-02-09T05:36:44.304Z,-5.30
2023-02-09T05:39:11.601Z,-5.30
2023-02-09T05:41:57.674Z,-5.40
2023-02-09T05:44:25.160Z,-5.40
2023-02-09T05:46:52.283Z,-5.50
2023-02-09T05:49:19.604Z,-5.50
2023-02-09T05:51:46.864Z,-5.50
2023-02-09T05:54:14.138Z,-5.60
2023-02-09T05:56:41.421Z,-5.50
2023-02-09T05:59:08.869Z,-5.40
2023-02-09T06:01:36.088Z,-5.50
2023-02-09T06:04:03.358Z,-5.50
2023-02-09T06:06:30.590Z,-5.50
2023-02-09T06:08:57.839Z,-5.50
2023-02-09T06:11:25.035Z,-5.50
2023-02-09T06:13:52.266Z,-5.50
2023-02-09T06:16:19.484Z,-5.60
2023-02-09T06:18:47.102Z,-5.60
2023-02-09T06:21:14.304Z,-5.60
2023-02-09T06:23:41.616Z,-5.70
2023-02-09T06:26:11.407Z,-5.60
2023-02-09T06:28:38.693Z,-5.60
2023-02-09T06:31:06.489Z,-5.70
2023-02-09T06:33:35.537Z,-5.70
2023-02-09T06:36:03.288Z,-5.70
2023-02-09T06:38:32.330Z,-5.70
2023-02-09T06:40:59.951Z,-5.60
2023-02-09T06:43:27.803Z,-5.50
2023-02-09T06:45:55.158Z,-5.20
2023-02-09T06:48:22.451Z,-5.60
2023-02-09T06:50:50.035Z,-5.40
2023-02-09T06:53:18.790Z,-5.30
2023-02-09T06:55:46.158Z,-5.20
2023-02-09T06:58:13.314Z,-5.10
2023-02-09T07:00:40.382Z,-5.00
2023-02-09T07:03:07.583Z,-5.00
2023-02-09T07:05:34.809Z,-4.90
2023-02-09T07:08:02.002Z,-4.80
2023-02-09T07:10:29.124Z,-4.60
2023-02-09T07:12:58.789Z,-4.70
2023-02-09T07:15:25.904Z,-4.60
2023-02-09T07:17:53.135Z,-4.60
2023-02-09T07:20:20.318Z,-4.50
2023-02-09T07:22:47.471Z,-4.40
2023-02-09T07:25:14.720Z,-4.40
2023-02-09T07:27:45.234Z,-4.30
2023-02-09T07:30:13.310Z,-4.20
2023-02-09T07:32:40.464Z,-4.10
2023-02-09T07:35:08.983Z,-4.10
2023-02-09T07:37:36.360Z,-4.00
2023-02-09T07:40:03.924Z,-3.90
2023-02-09T07:42:31.049Z,-3.90
2023-02-09T07:45:07.803Z,-3.90
2023-02-09T07:47:35.987Z,-3.70
2023-02-09T07:50:03.244Z,-3.70
2023-02-09T07:52:30.392Z,-3.70
2023-02-09T07:54:57.557Z,-3.60
2023-02-09T07:57:24.773Z,-3.50
2023-02-09T07:59:51.945Z,-3.40
2023-02-09T08:02:33.133Z,-3.40
2023-02-09T08:05:01.358Z,-3.30
2023-02-09T08:07:28.853Z,-3.30
2023-02-09T08:09:56.180Z,-3.10
2023-02-09T08:12:48.238Z,-3.10
2023-02-09T08:15:19.128Z,-3.00
2023-02-09T08:17:48.047Z,-2.90
2023-02-09T08:20:18.630Z,-2.80
2023-02-09T08:22:50.693Z,-2.80
2023-02-09T08:25:21.317Z,-2.60
2023-02-09T08:27:48.989Z,-2.50
2023-02-09T08:30:17.466Z,-2.40
2023-02-09T08:32:48.545Z,-2.30
2023-02-09T08:35:16.859Z,-2.20
2023-02-09T08:37:44.312Z,-2.20
2023-02-09T08:40:12.545Z,-2.00
2023-02-09T08:42:39.653Z,-2.00
2023-02-09T08:45:07.272Z,-1.90
2023-02-09T08:47:34.566Z,-1.80
2023-02-09T08:50:02.126Z,-1.70
2023-02-09T08:52:29.605Z,-1.70
2023-02-09T08:54:56.758Z,-1.60
2023-02-09T08:57:31.930Z,-1.50
2023-02-09T09:00:06.453Z,-1.40
2023-02-09T09:02:34.413Z,-1.20
2023-02-09T09:05:02.602Z,-1.10
2023-02-09T09:07:29.716Z,-1.10
2023-02-09T09:09:56.876Z,-1.10
2023-02-09T09:12:24.227Z,-1.00
2023-02-09T09:14:51.468Z,-0.80
2023-02-09T09:17:18.646Z,-0.80
2023-02-09T09:19:45.760Z,-0.70
2023-02-09T09:22:13.180Z,-0.70
2023-02-09T09:24:43.265Z,-0.60
2023-02-09T09:27:11.283Z,-0.70
2023-02-09T09:29:40.269Z,-0.50
2023-02-09T09:32:10.477Z,-0.50
2023-02-09T09:34:37.930Z,-0.30
2023-02-09T09:37:05.035Z,-0.30
2023-02-09T09:39:32.249Z,-0.20
2023-02-09T09:42:00.877Z,0.00
2023-02-09T09:44:33.483Z,0.00
2023-02-09T09:47:07.475Z,0.10
2023-02-09T09:49:35.582Z,0.10
2023-02-09T09:52:22.931Z,0.10
2023-02-09T09:54:50.935Z,0.30
2023-02-09T09:57:43.234Z,0.40
2023-02-09T10:00:23.175Z,0.50
2023-02-09T10:02:50.662Z,0.60
2023-02-09T10:05:26.680Z,0.70
2023-02-09T10:08:11.490Z,0.70
2023-02-09T10:11:06.451Z,0.80
2023-02-09T10:13:52.181Z,1.10
2023-02-09T10:16:25.571Z,1.10
2023-02-09T10:18:55.303Z,1.20
2023-02-09T10:21:25.151Z,1.10
2023-02-09T10:24:01.421Z,1.10
2023-02-09T10:26:34.260Z,1.50
2023-02-09T10:29:08.932Z,1.50
2023-02-09T10:31:47.511Z,1.40
2023-02-09T10:34:18.394Z,1.50
2023-02-09T10:36:50.792Z,1.70
2023-02-09T10:39:24.012Z,1.90
2023-02-09T10:41:53.865Z,2.00
2023-02-09T10:44:24.873Z,1.80
2023-02-09T10:47:11.446Z,2.00
2023-02-09T10:49:42.188Z,2.00
2023-02-09T10:52:17.534Z,2.10
2023-02-09T10:54:49.445Z,2.30
2023-02-09T10:57:33.987Z,2.90
2023-02-09T11:00:22.530Z,6.60
2023-02-09T11:03:04.073Z,7.80
2023-02-09T11:05:34.534Z,8.30
2023-02-09T11:08:05.086Z,8.20
2023-02-09T11:10:37.940Z,8.10
2023-02-09T11:13:25.472Z,8.50
2023-02-09T11:16:17.747Z,8.80
2023-02-09T11:18:52.293Z,8.40
2023-02-09T11:21:29.685Z,9.80
2023-02-09T11:24:05.865Z,9.40
2023-02-09T11:26:48.205Z,9.70
2023-02-09T11:29:30.580Z,9.00
2023-02-09T11:32:19.365Z,9.60
2023-02-09T11:35:08.354Z,8.00
2023-02-09T11:37:43.750Z,9.50
2023-02-09T11:40:33.935Z,8.80
2023-02-09T11:43:17.608Z,9.60
2023-02-09T11:45:49.109Z,9.00
2023-02-09T11:49:00.613Z,10.00
2023-02-09T11:51:30.440Z,9.60
2023-02-09T11:54:13.617Z,9.40
2023-02-09T11:56:52.993Z,8.30
2023-02-09T11:59:43.592Z,8.70
2023-02-09T12:02:14.233Z,10.10
2023-02-09T12:04:52.796Z,10.00
2023-02-09T12:07:37.391Z,9.50
2023-02-09T12:10:27.930Z,10.00
2023-02-09T12:13:17.797Z,9.30
2023-02-09T12:15:51.239Z,10.20
2023-02-09T12:18:28.295Z,9.40
2023-02-09T12:21:04.608Z,10.30
2023-02-09T12:23:39.184Z,10.70
2023-02-09T12:26:12.239Z,10.50
2023-02-09T12:28:54.420Z,9.90
2023-02-09T12:31:27.068Z,9.60
2023-02-09T12:37:17.194Z,8.50
2023-02-09T12:40:12.005Z,9.50
2023-02-09T12:42:47.422Z,8.20
2023-02-09T12:45:39.357Z,9.00
2023-02-09T12:48:09.688Z,9.90
2023-02-09T12:50:43.080Z,9.20
2023-02-09T12:53:22.698Z,9.20
2023-02-09T12:56:12.619Z,9.00
2023-02-09T12:58:45.948Z,7.30
2023-02-09T13:01:15.763Z,7.90
2023-02-09T13:04:01.361Z,8.40
2023-02-09T13:06:51.801Z,8.10
2023-02-09T13:09:28.175Z,8.50
2023-02-09T13:12:17.782Z,8.10
2023-02-09T13:14:49.785Z,7.10
2023-02-09T13:17:40.428Z,7.90
2023-02-09T13:20:10.861Z,7.30
2023-02-09T13:23:03.259Z,5.90
2023-02-09T13:25:39.787Z,3.80
2023-02-09T13:28:19.475Z,3.30
2023-02-09T13:30:47.389Z,2.90
2023-02-09T13:33:51.118Z,3.00
2023-02-09T13:36:24.917Z,3.00
2023-02-09T13:38:53.399Z,2.80
2023-02-09T13:41:48.616Z,2.80
2023-02-09T13:44:32.164Z,2.90
2023-02-09T13:47:02.212Z,2.80
2023-02-09T13:49:30.804Z,2.70
2023-02-09T13:52:22.340Z,2.80
2023-02-09T13:54:50.868Z,2.70
2023-02-09T13:57:34.913Z,2.80
2023-02-09T14:00:21.327Z,2.70
2023-02-09T14:02:52.444Z,2.60
2023-02-09T14:05:39.767Z,2.70
2023-02-09T14:08:09.081Z,2.50
2023-02-09T14:10:37.054Z,2.50
2023-02-09T14:13:10.316Z,2.50
2023-02-09T14:16:01.968Z,2.50
2023-02-09T14:18:32.229Z,2.40
2023-02-09T14:21:14.723Z,2.40
2023-02-09T14:23:48.076Z,2.30
2023-02-09T14:26:15.436Z,2.30
2023-02-09T14:28:53.318Z,2.30
2023-02-09T14:31:26.247Z,2.30
2023-02-09T14:33:56.057Z,2.30
2023-02-09T14:36:32.424Z,2.20
2023-02-09T14:39:19.942Z,2.20
2023-02-09T14:42:08.995Z,2.10
2023-02-09T14:44:47.668Z,2.10
2023-02-09T14:47:40.254Z,2.00
2023-02-09T14:50:13.559Z,2.00
2023-02-09T14:52:46.710Z,2.00
2023-02-09T14:55:21.060Z,2.00
2023-02-09T14:57:48.391Z,2.00
2023-02-09T15:00:20.135Z,1.90
2023-02-09T15:02:49.064Z,1.90
2023-02-09T15:05:16.644Z,1.90
2023-02-09T15:07:48.540Z,1.80
2023-02-09T15:10:38.250Z,1.80
2023-02-09T15:13:05.913Z,1.70
2023-02-09T15:15:37.699Z,1.70
2023-02-09T15:18:05.481Z,1.60
2023-02-09T15:20:33.068Z,1.60
2023-02-09T15:23:02.913Z,1.50
2023-02-09T15:25:30.328Z,1.50
2023-02-09T15:27:59.302Z,1.40
2023-02-09T15:30:30.637Z,1.40
2023-02-09T15:32:57.819Z,1.30
2023-02-09T15:35:26.985Z,1.30
2023-02-09T15:37:59.801Z,1.20
2023-02-09T15:40:55.359Z,1.10
2023-02-09T15:43:42.696Z,1.10
2023-02-09T15:46:29.525Z,1.10
2023-02-09T15:48:57.060Z,1.00
2023-02-09T15:51:26.145Z,0.90
2023-02-09T15:53:57.792Z,0.80
2023-02-09T15:56:25.016Z,0.70
2023-02-09T15:58:52.230Z,0.70
2023-02-09T16:01:20.408Z,0.70
2023-02-09T16:03:47.490Z,0.60
2023-02-09T16:06:21.918Z,0.60
2023-02-09T16:08:51.049Z,0.50
2023-02-09T16:11:32.992Z,0.40
2023-02-09T16:14:01.625Z,0.30
2023-02-09T16:16:30.831Z,0.30
2023-02-09T16:18:58.080Z,0.30
2023-02-09T16:21:33.389Z,0.30
2023-02-09T16:24:03.422Z,0.20
2023-02-09T16:26:32.709Z,0.10
2023-02-09T16:29:00.004Z,0.10
2023-02-09T16:31:27.433Z,0.00
2023-02-09T16:33:54.840Z,0.10
2023-02-09T16:36:26.602Z,0.10
2023-02-09T16:38:53.991Z,0.10
2023-02-09T16:41:40.039Z,0.00
2023-02-09T16:44:19.608Z,-0.10
2023-02-09T16:46:50.552Z,-0.30
2023-02-09T16:49:27.178Z,-0.20
2023-02-09T16:51:57.776Z,-0.20
2023-02-09T16:54:25.149Z,-0.30
2023-02-09T16:56:54.615Z,-0.30
2023-02-09T16:59:22.364Z,-0.30
2023-02-09T17:01:51.601Z,-0.50
2023-02-09T17:04:18.974Z,-0.30
2023-02-09T17:06:49.254Z,-0.40
2023-02-09T17:09:16.978Z,-0.50
2023-02-09T17:11:44.621Z,-0.50
2023-02-09T17:14:12.867Z,-0.50
2023-02-09T17:16:44.879Z,-0.50
2023-02-09T17:19:18.899Z,-0.60
2023-02-09T17:21:46.323Z,-0.70
2023-02-09T17:24:16.366Z,-0.70
2023-02-09T17:26:44.200Z,-0.60
2023-02-09T17:29:12.242Z,-0.80
2023-02-09T17:31:52.713Z,-0.70
2023-02-09T17:34:27.326Z,-0.60
2023-02-09T17:36:58.444Z,-0.80
2023-02-09T17:39:26.784Z,-0.80
2023-02-09T17:41:54.409Z,-0.90
2023-02-09T17:44:43.666Z,-0.80
2023-02-09T17:47:18.369Z,-0.90
2023-02-09T17:49:46.671Z,-0.80
2023-02-09T17:52:18.644Z,-0.80
2023-02-09T17:54:46.503Z,-0.80
2023-02-09T17:57:15.485Z,-1.00
2023-02-09T17:59:43.115Z,-0.90
2023-02-09T18:02:17.024Z,-0.90
2023-02-09T18:04:44.840Z,-0.90
2023-02-09T18:07:14.008Z,-0.90
2023-02-09T18:09:41.265Z,-0.90
2023-02-09T18:12:18.682Z,-1.00
2023-02-09T18:14:46.061Z,-1.00
2023-02-09T18:17:13.272Z,-1.10
2023-02-09T18:19:40.486Z,-1.10
2023-02-09T18:22:10.774Z,-1.10
2023-02-09T18:24:38.507Z,-1.10
2023-02-09T18:27:06.735Z,-1.10
2023-02-09T18:29:34.143Z,-1.10
2023-02-09T18:32:02.689Z,-1.00
2023-02-09T18:34:31.349Z,-0.90
2023-02-09T18:36:59.307Z,-0.90
2023-02-09T18:39:26.621Z,-0.90
2023-02-09T18:41:55.043Z,-0.90
2023-02-09T18:44:31.437Z,-1.00
2023-02-09T18:47:02.959Z,-1.00
2023-02-09T18:49:31.235Z,-1.00
2023-02-09T18:51:59.586Z,-1.00
2023-02-09T18:54:29.013Z,-1.10
2023-02-09T18:56:56.486Z,-1.10
2023-02-09T18:59:28.640Z,-1.00
2023-02-09T19:01:56.376Z,-1.10
2023-02-09T19:04:25.477Z,-1.20
2023-02-09T19:06:52.822Z,-1.20
2023-02-09T19:09:20.400Z,-1.30
2023-02-09T19:11:47.663Z,-1.30
2023-02-09T19:14:33.803Z,-1.30
2023-02-09T19:17:01.116Z,-1.30
2023-02-09T19:19:28.744Z,-1.40
2023-02-09T19:21:58.107Z,-1.40
2023-02-09T19:24:25.371Z,-1.50
2023-02-09T19:26:53.006Z,-1.50
2023-02-09T19:29:20.275Z,-1.50
2023-02-09T19:31:48.815Z,-1.60
2023-02-09T19:34:15.990Z,-1.70
2023-02-09T19:36:43.573Z,-1.80
2023-02-09T19:39:11.995Z,-1.90
2023-02-09T19:41:39.279Z,-2.00
2023-02-09T19:44:06.987Z,-2.00
2023-02-09T19:46:34.243Z,-2.00
2023-02-09T19:49:02.455Z,-2.00
2023-02-09T19:51:30.091Z,-2.10
2023-02-09T19:53:57.247Z,-2.10
2023-02-09T19:56:24.933Z,-2.20
2023-02-09T19:58:52.243Z,-2.10
2023-02-09T20:01:21.006Z,-2.00
2023-02-09T20:03:49.647Z,-2.20
2023-02-09T20:06:17.273Z,-2.40
2023-02-09T20:08:45.257Z,-2.30
2023-02-09T20:11:17.049Z,-2.20
2023-02-09T20:13:44.343Z,-2.50
2023-02-09T20:16:19.714Z,-2.60
2023-02-09T20:18:49.020Z,-2.50
2023-02-09T20:21:18.642Z,-2.50
2023-02-09T20:23:46.810Z,-2.40
2023-02-09T20:26:18.092Z,-2.30
2023-02-09T20:28:46.469Z,-2.30
2023-02-09T20:31:34.979Z,-2.30
2023-02-09T20:34:05.209Z,-2.40
2023-02-09T20:36:37.918Z,-2.50
2023-02-09T20:39:08.292Z,-2.40
2023-02-09T20:41:35.667Z,-2.50
2023-02-09T20:44:21.414Z,-2.50
2023-02-09T20:46:58.741Z,-2.40
2023-02-09T20:49:31.181Z,-2.50
2023-02-09T20:51:59.174Z,-2.50
2023-02-09T20:54:27.878Z,-2.50
2023-02-09T20:56:55.276Z,-2.50
2023-02-09T20:59:22.634Z,-2.40
2023-02-09T21:01:50.064Z,-2.50
2023-02-09T21:04:18.329Z,-2.40
2023-02-09T21:06:47.029Z,-2.50
2023-02-09T21:09:15.810Z,-2.50
2023-02-09T21:11:43.061Z,-2.50
2023-02-09T21:14:21.686Z,-2.60
2023-02-09T21:16:56.481Z,-2.70
2023-02-09T21:19:25.378Z,-2.70
2023-02-09T21:21:52.657Z,-2.80
2023-02-09T21:24:20.310Z,-2.80
2023-02-09T21:26:47.588Z,-2.90
2023-02-09T21:29:15.156Z,-3.00
2023-02-09T21:31:42.624Z,-3.00
2023-02-09T21:34:14.758Z,-3.00
2023-02-09T21:36:42.242Z,-3.00
2023-02-09T21:39:09.475Z,-3.00
2023-02-09T21:41:55.143Z,-3.00
2023-02-09T21:44:22.417Z,-3.10
2023-02-09T21:46:50.381Z,-3.10
2023-02-09T21:49:17.779Z,-3.10
2023-02-09T21:51:45.759Z,-3.20
2023-02-09T21:54:17.383Z,-3.20
2023-02-09T21:56:45.293Z,-3.20
2023-02-09T21:59:12.617Z,-3.20
2023-02-09T22:01:41.116Z,-3.30
2023-02-09T22:04:08.695Z,-3.40
2023-02-09T22:06:35.933Z,-3.60
2023-02-09T22:09:06.404Z,-3.50
2023-02-09T22:11:34.277Z,-3.50
2023-02-09T22:14:01.517Z,-3.50
2023-02-09T22:16:29.693Z,-3.50
2023-02-09T22:18:59.570Z,-3.60
2023-02-09T22:21:27.188Z,-3.50
2023-02-09T22:23:55.264Z,-3.60
2023-02-09T22:26:22.754Z,-3.60
2023-02-09T22:28:49.968Z,-3.70
2023-02-09T22:31:19.676Z,-3.70
2023-02-09T22:33:47.362Z,-3.70
2023-02-09T22:36:17.834Z,-3.70
2023-02-09T22:38:45.960Z,-3.60
2023-02-09T22:41:21.757Z,-3.60
2023-02-09T22:43:54.322Z,-3.60
2023-02-09T22:46:24.882Z,-3.70
2023-02-09T22:48:57.447Z,-3.70
2023-02-09T22:51:28.369Z,-3.70
2023-02-09T22:53:57.617Z,-3.70
2023-02-09T22:56:26.213Z,-3.70
2023-02-09T22:58:54.891Z,-3.70
2023-02-09T23:01:22.378Z,-3.60
2023-02-09T23:03:50.418Z,-3.70
2023-02-09T23:06:20.986Z,-3.70
2023-02-09T23:08:48.252Z,-3.70
2023-02-09T23:11:17.276Z,-3.80
2023-02-09T23:13:45.303Z,-3.90
2023-02-09T23:16:14.006Z,-3.90
2023-02-09T23:18:47.536Z,-3.90
2023-02-09T23:21:16.055Z,-3.90
2023-02-09T23:23:44.201Z,-4.00
2023-02-09T23:26:12.658Z,-4.00
2023-02-09T23:28:39.954Z,-4.00
2023-02-09T23:31:11.235Z,-4.00
2023-02-09T23:33:38.936Z,-4.00
2023-02-09T23:36:08.142Z,-4.10
2023-02-09T23:38:36.137Z,-4.10
2023-02-09T23:41:21.940Z,-4.10
2023-02-09T23:43:49.965Z,-4.10
2023-02-09T23:46:19.662Z,-4.10
2023-02-09T23:48:47.040Z,-4.20
2023-02-09T23:51:18.469Z,-4.20
2023-02-09T23:53:47.057Z,-4.30
2023-02-09T23:56:16.184Z,-4.20
2023-02-09T23:58:46.352Z,-4.20
